気象予報士の航空気象 帰ってきた、アシナガバチ!

*All archives   *Admin

スポンサーサイト

上記の広告は1ヶ月以上更新のないブログに表示されています。
新しい記事を書く事で広告が消せます。
--:--  |  スポンサー広告  |  EDIT  |  Top↑

2009.09.04 (Fri)

帰ってきた、アシナガバチ!

昨日は一昨日より少し日差しが合ったようで暖かかったですね。


とは言っても、気温は羽田で24度


羽田空港 午後2時のMetar

RJTT 030500Z 03010KT 9999 FEW020 SCT025 BKN040 24/18 Q1017 RMK 1CU020 3SC025 7SC040 A3003


アシナガハチ



玄関先にまたもやアシナガバチが4~5匹ほど、同じ葉に集まっているのを見つけました。


すぐ、殺虫剤で殺処分しました。


巣の根っこにあたる部分が出来はじめていました。


おそろしや。


台風一過なので、巣を飛ばされた一家の引越しだったのでしょうか。


そうそう、ハチに関してこんなことわざか言い伝えを聞いたことがあります。


「アシナガバチが軒下や屋根裏に巣を作るときは台風が多く、木の葉や枝下に巣を作るときは台風は少ない。」


前回処分したときは葉の下に巣があり、今回も葉の下に作り始めていました。


おおハズレです。



ブログランキングに参加しています。
にほんブログ村 環境ブログ 天気・気象学へ
にほんブログ村
応援クリックをおねがします。
 

以下、アフィリエイトサイトです。






スポンサーサイト
01:54  |  ワタクシゴト  |  TB(0)  |  CM(0)  |  EDIT  |  Top↑

コメントを投稿する


 管理者だけに表示  (非公開コメント投稿可能)

▲PageTop

この記事のトラックバックURL

→http://weathereucalyptus.blog115.fc2.com/tb.php/228-069d0406
この記事にトラックバックする(FC2ブログユーザー)

この記事へのトラックバック

▲PageTop

 | BLOGTOP | 
上記広告は1ヶ月以上更新のないブログに表示されています。新しい記事を書くことで広告を消せます。